sensor_id;sensor_type;location;lat;lon;timestamp;P1;durP1;ratioP1;P2;durP2;ratioP2
71106;SDS011;58763;47.982;11.516;2023-08-20T00:00:13;6.03;;;3.42;;
71106;SDS011;58763;47.982;11.516;2023-08-20T00:02:41;7.47;;;3.88;;
71106;SDS011;58763;47.982;11.516;2023-08-20T00:05:08;9.15;;;3.80;;
71106;SDS011;58763;47.982;11.516;2023-08-20T00:07:34;9.32;;;3.92;;
71106;SDS011;58763;47.982;11.516;2023-08-20T00:09:59;6.25;;;3.92;;
71106;SDS011;58763;47.982;11.516;2023-08-20T00:12:25;8.30;;;3.80;;
71106;SDS011;58763;47.982;11.516;2023-08-20T00:14:52;9.85;;;4.60;;
71106;SDS011;58763;47.982;11.516;2023-08-20T00:17:19;7.28;;;4.15;;
71106;SDS011;58763;47.982;11.516;2023-08-20T00:19:45;11.85;;;3.95;;
71106;SDS011;58763;47.982;11.516;2023-08-20T00:22:11;7.38;;;3.97;;
71106;SDS011;58763;47.982;11.516;2023-08-20T00:24:36;7.60;;;4.10;;
71106;SDS011;58763;47.982;11.516;2023-08-20T00:27:02;7.85;;;4.03;;
71106;SDS011;58763;47.982;11.516;2023-08-20T00:29:28;9.57;;;4.72;;
71106;SDS011;58763;47.982;11.516;2023-08-20T00:31:53;9.45;;;4.28;;
71106;SDS011;58763;47.982;11.516;2023-08-20T00:34:18;8.00;;;3.72;;
71106;SDS011;58763;47.982;11.516;2023-08-20T00:36:44;7.53;;;3.53;;
71106;SDS011;58763;47.982;11.516;2023-08-20T00:39:09;8.20;;;3.70;;
71106;SDS011;58763;47.982;11.516;2023-08-20T00:41:34;11.10;;;3.78;;
71106;SDS011;58763;47.982;11.516;2023-08-20T00:44:00;7.68;;;3.50;;
71106;SDS011;58763;47.982;11.516;2023-08-20T00:46:25;7.63;;;3.90;;
71106;SDS011;58763;47.982;11.516;2023-08-20T00:48:51;11.07;;;4.25;;
71106;SDS011;58763;47.982;11.516;2023-08-20T00:51:16;9.15;;;3.60;;
71106;SDS011;58763;47.982;11.516;2023-08-20T00:53:42;7.22;;;3.65;;
71106;SDS011;58763;47.982;11.516;2023-08-20T00:56:10;6.72;;;3.67;;
71106;SDS011;58763;47.982;11.516;2023-08-20T00:58:35;8.65;;;3.70;;
71106;SDS011;58763;47.982;11.516;2023-08-20T01:01:01;5.65;;;3.30;;
71106;SDS011;58763;47.982;11.516;2023-08-20T01:03:26;8.63;;;4.13;;
71106;SDS011;58763;47.982;11.516;2023-08-20T01:05:53;9.05;;;3.60;;
71106;SDS011;58763;47.982;11.516;2023-08-20T01:08:40;6.70;;;3.55;;
71106;SDS011;58763;47.982;11.516;2023-08-20T01:11:10;8.27;;;3.97;;
71106;SDS011;58763;47.982;11.516;2023-08-20T01:13:41;7.15;;;3.92;;
71106;SDS011;58763;47.982;11.516;2023-08-20T01:16:07;8.80;;;4.38;;
71106;SDS011;58763;47.982;11.516;2023-08-20T01:18:32;8.90;;;3.78;;
71106;SDS011;58763;47.982;11.516;2023-08-20T01:20:58;9.65;;;4.30;;
71106;SDS011;58763;47.982;11.516;2023-08-20T01:26:25;10.35;;;3.53;;
71106;SDS011;58763;47.982;11.516;2023-08-20T01:29:05;7.07;;;3.80;;
71106;SDS011;58763;47.982;11.516;2023-08-20T01:31:32;8.90;;;3.78;;
71106;SDS011;58763;47.982;11.516;2023-08-20T01:33:58;10.48;;;3.42;;
71106;SDS011;58763;47.982;11.516;2023-08-20T01:36:24;9.70;;;3.80;;
71106;SDS011;58763;47.982;11.516;2023-08-20T01:38:49;7.90;;;3.83;;
71106;SDS011;58763;47.982;11.516;2023-08-20T01:41:16;8.80;;;3.92;;
71106;SDS011;58763;47.982;11.516;2023-08-20T01:43:42;7.18;;;3.72;;
71106;SDS011;58763;47.982;11.516;2023-08-20T01:46:07;6.10;;;3.58;;
71106;SDS011;58763;47.982;11.516;2023-08-20T01:48:34;8.00;;;3.60;;
71106;SDS011;58763;47.982;11.516;2023-08-20T01:51:00;7.30;;;3.75;;
71106;SDS011;58763;47.982;11.516;2023-08-20T01:53:25;7.00;;;3.75;;
71106;SDS011;58763;47.982;11.516;2023-08-20T01:55:51;6.13;;;3.75;;
71106;SDS011;58763;47.982;11.516;2023-08-20T01:58:16;11.60;;;3.88;;
71106;SDS011;58763;47.982;11.516;2023-08-20T02:00:42;8.07;;;3.70;;
71106;SDS011;58763;47.982;11.516;2023-08-20T02:03:07;8.65;;;3.63;;
71106;SDS011;58763;47.982;11.516;2023-08-20T02:05:32;7.82;;;3.75;;
71106;SDS011;58763;47.982;11.516;2023-08-20T02:07:58;7.22;;;3.70;;
71106;SDS011;58763;47.982;11.516;2023-08-20T02:10:23;7.47;;;3.70;;
71106;SDS011;58763;47.982;11.516;2023-08-20T02:12:49;8.65;;;3.92;;
71106;SDS011;58763;47.982;11.516;2023-08-20T02:15:15;6.93;;;3.65;;
71106;SDS011;58763;47.982;11.516;2023-08-20T02:17:40;12.40;;;3.85;;
71106;SDS011;58763;47.982;11.516;2023-08-20T02:20:06;7.07;;;3.63;;
71106;SDS011;58763;47.982;11.516;2023-08-20T02:22:37;9.52;;;3.50;;
71106;SDS011;58763;47.982;11.516;2023-08-20T02:25:03;6.72;;;3.58;;
71106;SDS011;58763;47.982;11.516;2023-08-20T02:27:29;8.05;;;3.78;;
71106;SDS011;58763;47.982;11.516;2023-08-20T02:29:54;8.30;;;3.38;;
71106;SDS011;58763;47.982;11.516;2023-08-20T02:32:19;9.25;;;3.60;;
71106;SDS011;58763;47.982;11.516;2023-08-20T02:34:48;8.13;;;3.38;;
71106;SDS011;58763;47.982;11.516;2023-08-20T02:37:17;7.15;;;3.72;;
71106;SDS011;58763;47.982;11.516;2023-08-20T02:39:42;6.10;;;3.30;;
71106;SDS011;58763;47.982;11.516;2023-08-20T02:42:08;7.82;;;4.00;;
71106;SDS011;58763;47.982;11.516;2023-08-20T02:44:34;6.00;;;3.60;;
71106;SDS011;58763;47.982;11.516;2023-08-20T02:46:59;8.73;;;3.67;;
71106;SDS011;58763;47.982;11.516;2023-08-20T02:49:25;7.22;;;3.28;;
71106;SDS011;58763;47.982;11.516;2023-08-20T02:51:50;8.38;;;3.58;;
71106;SDS011;58763;47.982;11.516;2023-08-20T02:54:15;7.80;;;3.58;;
71106;SDS011;58763;47.982;11.516;2023-08-20T02:56:41;7.07;;;3.30;;
71106;SDS011;58763;47.982;11.516;2023-08-20T02:59:06;7.28;;;3.78;;
71106;SDS011;58763;47.982;11.516;2023-08-20T03:01:32;6.15;;;3.55;;
71106;SDS011;58763;47.982;11.516;2023-08-20T03:03:57;8.60;;;3.85;;
71106;SDS011;58763;47.982;11.516;2023-08-20T03:06:23;8.43;;;3.35;;
71106;SDS011;58763;47.982;11.516;2023-08-20T03:08:48;11.75;;;3.53;;
71106;SDS011;58763;47.982;11.516;2023-08-20T03:11:13;6.47;;;3.70;;
71106;SDS011;58763;47.982;11.516;2023-08-20T03:13:39;8.63;;;3.83;;
71106;SDS011;58763;47.982;11.516;2023-08-20T03:16:04;7.20;;;3.58;;
71106;SDS011;58763;47.982;11.516;2023-08-20T03:18:30;7.15;;;3.60;;
71106;SDS011;58763;47.982;11.516;2023-08-20T03:20:55;9.10;;;3.80;;
71106;SDS011;58763;47.982;11.516;2023-08-20T03:23:21;11.25;;;3.92;;
71106;SDS011;58763;47.982;11.516;2023-08-20T03:25:47;10.82;;;3.92;;
71106;SDS011;58763;47.982;11.516;2023-08-20T03:28:12;9.20;;;3.67;;
71106;SDS011;58763;47.982;11.516;2023-08-20T03:30:37;8.73;;;3.60;;
71106;SDS011;58763;47.982;11.516;2023-08-20T03:33:03;9.77;;;4.05;;
71106;SDS011;58763;47.982;11.516;2023-08-20T03:35:29;9.95;;;3.90;;
71106;SDS011;58763;47.982;11.516;2023-08-20T03:37:54;7.57;;;4.05;;
71106;SDS011;58763;47.982;11.516;2023-08-20T03:40:20;9.35;;;4.50;;
71106;SDS011;58763;47.982;11.516;2023-08-20T03:42:45;6.68;;;3.90;;
71106;SDS011;58763;47.982;11.516;2023-08-20T03:45:10;6.35;;;3.75;;
71106;SDS011;58763;47.982;11.516;2023-08-20T03:47:36;7.40;;;3.75;;
71106;SDS011;58763;47.982;11.516;2023-08-20T03:50:02;8.25;;;4.63;;
71106;SDS011;58763;47.982;11.516;2023-08-20T03:52:28;8.05;;;4.00;;
71106;SDS011;58763;47.982;11.516;2023-08-20T03:54:54;6.88;;;3.85;;
71106;SDS011;58763;47.982;11.516;2023-08-20T03:57:19;7.25;;;3.85;;
71106;SDS011;58763;47.982;11.516;2023-08-20T03:59:45;10.50;;;4.18;;
71106;SDS011;58763;47.982;11.516;2023-08-20T04:02:10;11.25;;;3.85;;
71106;SDS011;58763;47.982;11.516;2023-08-20T04:04:36;8.23;;;4.30;;
71106;SDS011;58763;47.982;11.516;2023-08-20T04:07:02;6.93;;;4.00;;
71106;SDS011;58763;47.982;11.516;2023-08-20T04:09:28;9.60;;;4.30;;
71106;SDS011;58763;47.982;11.516;2023-08-20T04:11:54;8.15;;;3.72;;
71106;SDS011;58763;47.982;11.516;2023-08-20T04:14:19;8.40;;;4.40;;
71106;SDS011;58763;47.982;11.516;2023-08-20T04:16:44;7.32;;;3.80;;
71106;SDS011;58763;47.982;11.516;2023-08-20T04:19:11;10.60;;;4.07;;
71106;SDS011;58763;47.982;11.516;2023-08-20T04:21:36;8.50;;;4.05;;
71106;SDS011;58763;47.982;11.516;2023-08-20T04:24:02;9.80;;;3.42;;
71106;SDS011;58763;47.982;11.516;2023-08-20T04:26:27;9.23;;;3.75;;
71106;SDS011;58763;47.982;11.516;2023-08-20T04:28:53;8.25;;;4.03;;
71106;SDS011;58763;47.982;11.516;2023-08-20T04:31:18;8.40;;;3.97;;
71106;SDS011;58763;47.982;11.516;2023-08-20T04:33:45;8.82;;;3.92;;
71106;SDS011;58763;47.982;11.516;2023-08-20T04:36:10;7.35;;;4.10;;
71106;SDS011;58763;47.982;11.516;2023-08-20T04:38:36;7.43;;;4.07;;
71106;SDS011;58763;47.982;11.516;2023-08-20T04:41:02;8.77;;;4.20;;
71106;SDS011;58763;47.982;11.516;2023-08-20T04:43:28;8.95;;;4.00;;
71106;SDS011;58763;47.982;11.516;2023-08-20T04:45:54;10.35;;;3.97;;
71106;SDS011;58763;47.982;11.516;2023-08-20T04:48:19;6.28;;;3.80;;
71106;SDS011;58763;47.982;11.516;2023-08-20T04:50:46;8.73;;;3.92;;
71106;SDS011;58763;47.982;11.516;2023-08-20T04:53:12;9.10;;;3.75;;
71106;SDS011;58763;47.982;11.516;2023-08-20T04:55:38;11.60;;;3.90;;
71106;SDS011;58763;47.982;11.516;2023-08-20T04:58:04;8.63;;;3.80;;
71106;SDS011;58763;47.982;11.516;2023-08-20T05:00:39;11.70;;;3.85;;
71106;SDS011;58763;47.982;11.516;2023-08-20T05:03:05;6.88;;;3.80;;
71106;SDS011;58763;47.982;11.516;2023-08-20T05:05:30;7.93;;;3.90;;
71106;SDS011;58763;47.982;11.516;2023-08-20T05:07:56;8.20;;;3.92;;
71106;SDS011;58763;47.982;11.516;2023-08-20T05:10:21;7.53;;;3.78;;
71106;SDS011;58763;47.982;11.516;2023-08-20T05:12:47;9.10;;;3.72;;
71106;SDS011;58763;47.982;11.516;2023-08-20T05:15:12;11.43;;;4.38;;
71106;SDS011;58763;47.982;11.516;2023-08-20T05:17:37;7.30;;;3.90;;
71106;SDS011;58763;47.982;11.516;2023-08-20T05:20:05;8.02;;;4.25;;
71106;SDS011;58763;47.982;11.516;2023-08-20T05:22:30;10.88;;;4.00;;
71106;SDS011;58763;47.982;11.516;2023-08-20T05:24:56;7.55;;;3.67;;
71106;SDS011;58763;47.982;11.516;2023-08-20T05:27:22;10.93;;;3.95;;
71106;SDS011;58763;47.982;11.516;2023-08-20T05:29:47;7.53;;;3.80;;
71106;SDS011;58763;47.982;11.516;2023-08-20T05:32:13;9.18;;;4.20;;
71106;SDS011;58763;47.982;11.516;2023-08-20T05:34:39;9.18;;;4.05;;
71106;SDS011;58763;47.982;11.516;2023-08-20T05:37:05;8.18;;;4.03;;
71106;SDS011;58763;47.982;11.516;2023-08-20T05:39:35;9.57;;;4.30;;
71106;SDS011;58763;47.982;11.516;2023-08-20T05:42:03;7.55;;;4.30;;
71106;SDS011;58763;47.982;11.516;2023-08-20T05:44:29;10.07;;;4.07;;
71106;SDS011;58763;47.982;11.516;2023-08-20T05:46:54;9.52;;;3.78;;
71106;SDS011;58763;47.982;11.516;2023-08-20T05:49:19;9.07;;;4.03;;
71106;SDS011;58763;47.982;11.516;2023-08-20T05:51:45;9.93;;;4.00;;
71106;SDS011;58763;47.982;11.516;2023-08-20T05:54:10;8.73;;;3.75;;
71106;SDS011;58763;47.982;11.516;2023-08-20T05:56:37;7.00;;;3.88;;
71106;SDS011;58763;47.982;11.516;2023-08-20T05:59:03;8.52;;;4.20;;
71106;SDS011;58763;47.982;11.516;2023-08-20T06:01:28;8.23;;;3.95;;
71106;SDS011;58763;47.982;11.516;2023-08-20T06:03:54;10.00;;;4.03;;
71106;SDS011;58763;47.982;11.516;2023-08-20T06:06:19;8.90;;;3.85;;
71106;SDS011;58763;47.982;11.516;2023-08-20T06:08:44;8.30;;;3.90;;
71106;SDS011;58763;47.982;11.516;2023-08-20T06:11:10;12.35;;;3.90;;
71106;SDS011;58763;47.982;11.516;2023-08-20T06:13:35;9.68;;;4.10;;
71106;SDS011;58763;47.982;11.516;2023-08-20T06:16:01;8.02;;;3.92;;
71106;SDS011;58763;47.982;11.516;2023-08-20T06:18:26;7.50;;;3.65;;
71106;SDS011;58763;47.982;11.516;2023-08-20T06:20:52;8.68;;;4.03;;
71106;SDS011;58763;47.982;11.516;2023-08-20T06:23:17;7.18;;;3.60;;
71106;SDS011;58763;47.982;11.516;2023-08-20T06:25:42;11.68;;;4.05;;
71106;SDS011;58763;47.982;11.516;2023-08-20T06:28:08;6.82;;;3.72;;
71106;SDS011;58763;47.982;11.516;2023-08-20T06:30:35;8.82;;;3.60;;
71106;SDS011;58763;47.982;11.516;2023-08-20T06:33:00;7.00;;;3.78;;
71106;SDS011;58763;47.982;11.516;2023-08-20T06:35:26;8.68;;;3.75;;
71106;SDS011;58763;47.982;11.516;2023-08-20T06:37:52;8.20;;;4.10;;
71106;SDS011;58763;47.982;11.516;2023-08-20T06:40:17;10.00;;;4.70;;
71106;SDS011;58763;47.982;11.516;2023-08-20T06:42:43;9.05;;;4.30;;
71106;SDS011;58763;47.982;11.516;2023-08-20T06:45:08;7.60;;;3.90;;
71106;SDS011;58763;47.982;11.516;2023-08-20T06:47:34;5.97;;;3.72;;
71106;SDS011;58763;47.982;11.516;2023-08-20T06:50:00;7.35;;;3.90;;
71106;SDS011;58763;47.982;11.516;2023-08-20T06:52:25;9.10;;;4.03;;
71106;SDS011;58763;47.982;11.516;2023-08-20T06:54:50;7.13;;;3.70;;
71106;SDS011;58763;47.982;11.516;2023-08-20T06:57:16;8.18;;;3.67;;
71106;SDS011;58763;47.982;11.516;2023-08-20T06:59:42;7.20;;;3.60;;
71106;SDS011;58763;47.982;11.516;2023-08-20T07:02:08;7.03;;;3.72;;
71106;SDS011;58763;47.982;11.516;2023-08-20T07:04:35;6.93;;;3.40;;
71106;SDS011;58763;47.982;11.516;2023-08-20T07:07:00;6.43;;;3.50;;
71106;SDS011;58763;47.982;11.516;2023-08-20T07:09:26;8.00;;;3.72;;
71106;SDS011;58763;47.982;11.516;2023-08-20T07:11:52;8.82;;;3.63;;
71106;SDS011;58763;47.982;11.516;2023-08-20T07:14:17;6.95;;;3.67;;
71106;SDS011;58763;47.982;11.516;2023-08-20T07:16:43;10.68;;;4.55;;
71106;SDS011;58763;47.982;11.516;2023-08-20T07:19:08;10.20;;;3.75;;
71106;SDS011;58763;47.982;11.516;2023-08-20T07:21:36;6.72;;;3.40;;
71106;SDS011;58763;47.982;11.516;2023-08-20T07:24:02;7.78;;;3.58;;
71106;SDS011;58763;47.982;11.516;2023-08-20T07:26:27;8.27;;;3.92;;
71106;SDS011;58763;47.982;11.516;2023-08-20T07:28:53;12.32;;;3.42;;
71106;SDS011;58763;47.982;11.516;2023-08-20T07:31:31;12.32;;;3.95;;
71106;SDS011;58763;47.982;11.516;2023-08-20T07:33:59;7.85;;;3.88;;
71106;SDS011;58763;47.982;11.516;2023-08-20T07:36:25;9.98;;;3.70;;
71106;SDS011;58763;47.982;11.516;2023-08-20T07:38:51;8.43;;;3.60;;
71106;SDS011;58763;47.982;11.516;2023-08-20T07:41:18;7.28;;;3.78;;
71106;SDS011;58763;47.982;11.516;2023-08-20T07:43:45;9.02;;;3.30;;
71106;SDS011;58763;47.982;11.516;2023-08-20T07:46:11;10.10;;;3.67;;
71106;SDS011;58763;47.982;11.516;2023-08-20T07:48:37;6.28;;;3.25;;
71106;SDS011;58763;47.982;11.516;2023-08-20T07:51:03;9.45;;;3.25;;
71106;SDS011;58763;47.982;11.516;2023-08-20T07:53:29;8.40;;;3.33;;
71106;SDS011;58763;47.982;11.516;2023-08-20T07:55:55;7.13;;;3.42;;
71106;SDS011;58763;47.982;11.516;2023-08-20T07:58:21;8.18;;;2.83;;
71106;SDS011;58763;47.982;11.516;2023-08-20T08:00:46;6.47;;;3.17;;
71106;SDS011;58763;47.982;11.516;2023-08-20T08:03:12;7.72;;;3.00;;
71106;SDS011;58763;47.982;11.516;2023-08-20T08:05:40;6.95;;;3.35;;
71106;SDS011;58763;47.982;11.516;2023-08-20T08:08:05;7.25;;;3.28;;
71106;SDS011;58763;47.982;11.516;2023-08-20T08:10:31;6.78;;;3.13;;
71106;SDS011;58763;47.982;11.516;2023-08-20T08:12:56;9.65;;;3.08;;
71106;SDS011;58763;47.982;11.516;2023-08-20T08:15:22;6.68;;;3.15;;
71106;SDS011;58763;47.982;11.516;2023-08-20T08:17:48;5.85;;;3.08;;
71106;SDS011;58763;47.982;11.516;2023-08-20T08:20:13;10.13;;;2.95;;
71106;SDS011;58763;47.982;11.516;2023-08-20T08:22:39;8.82;;;3.33;;
71106;SDS011;58763;47.982;11.516;2023-08-20T08:25:05;9.45;;;3.45;;
71106;SDS011;58763;47.982;11.516;2023-08-20T08:27:30;8.73;;;3.38;;
71106;SDS011;58763;47.982;11.516;2023-08-20T08:29:56;7.80;;;3.15;;
71106;SDS011;58763;47.982;11.516;2023-08-20T08:32:21;6.05;;;2.83;;
71106;SDS011;58763;47.982;11.516;2023-08-20T08:34:47;9.75;;;3.22;;
71106;SDS011;58763;47.982;11.516;2023-08-20T08:37:12;8.68;;;2.95;;
71106;SDS011;58763;47.982;11.516;2023-08-20T08:39:37;5.50;;;2.92;;
71106;SDS011;58763;47.982;11.516;2023-08-20T08:42:04;5.38;;;2.60;;
71106;SDS011;58763;47.982;11.516;2023-08-20T08:44:34;7.82;;;2.75;;
71106;SDS011;58763;47.982;11.516;2023-08-20T08:46:59;5.65;;;3.03;;
71106;SDS011;58763;47.982;11.516;2023-08-20T08:49:27;6.18;;;2.97;;
71106;SDS011;58763;47.982;11.516;2023-08-20T08:51:54;5.55;;;2.72;;
71106;SDS011;58763;47.982;11.516;2023-08-20T08:54:21;5.07;;;3.00;;
71106;SDS011;58763;47.982;11.516;2023-08-20T08:56:47;6.80;;;2.72;;
71106;SDS011;58763;47.982;11.516;2023-08-20T08:59:13;11.02;;;3.10;;
71106;SDS011;58763;47.982;11.516;2023-08-20T09:01:39;7.38;;;2.65;;
71106;SDS011;58763;47.982;11.516;2023-08-20T09:04:06;5.78;;;3.10;;
71106;SDS011;58763;47.982;11.516;2023-08-20T09:06:51;7.68;;;2.60;;
71106;SDS011;58763;47.982;11.516;2023-08-20T09:09:18;7.15;;;2.95;;
71106;SDS011;58763;47.982;11.516;2023-08-20T09:11:44;6.90;;;2.60;;
71106;SDS011;58763;47.982;11.516;2023-08-20T09:14:31;6.95;;;2.63;;
71106;SDS011;58763;47.982;11.516;2023-08-20T09:16:57;8.63;;;3.08;;
71106;SDS011;58763;47.982;11.516;2023-08-20T09:19:24;7.40;;;2.67;;
71106;SDS011;58763;47.982;11.516;2023-08-20T09:21:49;9.77;;;2.97;;
71106;SDS011;58763;47.982;11.516;2023-08-20T09:24:25;5.70;;;2.60;;
71106;SDS011;58763;47.982;11.516;2023-08-20T09:26:56;8.25;;;2.63;;
71106;SDS011;58763;47.982;11.516;2023-08-20T09:29:23;4.70;;;2.40;;
71106;SDS011;58763;47.982;11.516;2023-08-20T09:31:48;6.45;;;2.42;;
71106;SDS011;58763;47.982;11.516;2023-08-20T09:34:14;5.68;;;2.42;;
71106;SDS011;58763;47.982;11.516;2023-08-20T09:36:39;6.25;;;2.30;;
71106;SDS011;58763;47.982;11.516;2023-08-20T09:39:05;7.18;;;2.55;;
71106;SDS011;58763;47.982;11.516;2023-08-20T09:41:30;7.10;;;2.53;;
71106;SDS011;58763;47.982;11.516;2023-08-20T09:43:57;5.43;;;2.25;;
71106;SDS011;58763;47.982;11.516;2023-08-20T09:46:27;5.55;;;2.08;;
71106;SDS011;58763;47.982;11.516;2023-08-20T09:48:56;8.10;;;2.22;;
71106;SDS011;58763;47.982;11.516;2023-08-20T09:51:26;7.10;;;2.60;;
71106;SDS011;58763;47.982;11.516;2023-08-20T09:54:00;5.57;;;2.45;;
71106;SDS011;58763;47.982;11.516;2023-08-20T09:56:34;11.13;;;2.90;;
71106;SDS011;58763;47.982;11.516;2023-08-20T09:59:03;6.28;;;2.33;;
71106;SDS011;58763;47.982;11.516;2023-08-20T10:01:29;7.40;;;2.40;;
71106;SDS011;58763;47.982;11.516;2023-08-20T10:03:55;6.20;;;2.50;;
71106;SDS011;58763;47.982;11.516;2023-08-20T10:06:21;6.80;;;2.40;;
71106;SDS011;58763;47.982;11.516;2023-08-20T10:08:48;6.55;;;2.33;;
71106;SDS011;58763;47.982;11.516;2023-08-20T10:11:15;9.00;;;2.10;;
71106;SDS011;58763;47.982;11.516;2023-08-20T10:13:41;5.05;;;2.03;;
71106;SDS011;58763;47.982;11.516;2023-08-20T10:16:07;5.85;;;1.92;;
71106;SDS011;58763;47.982;11.516;2023-08-20T10:18:34;7.47;;;2.30;;
71106;SDS011;58763;47.982;11.516;2023-08-20T10:21:00;4.90;;;1.80;;
71106;SDS011;58763;47.982;11.516;2023-08-20T10:23:26;5.65;;;2.10;;
71106;SDS011;58763;47.982;11.516;2023-08-20T10:25:52;5.82;;;2.10;;
71106;SDS011;58763;47.982;11.516;2023-08-20T10:28:22;4.50;;;2.20;;
71106;SDS011;58763;47.982;11.516;2023-08-20T10:33:38;4.78;;;2.17;;
71106;SDS011;58763;47.982;11.516;2023-08-20T10:36:14;6.15;;;2.15;;
71106;SDS011;58763;47.982;11.516;2023-08-20T10:38:47;6.05;;;2.00;;
71106;SDS011;58763;47.982;11.516;2023-08-20T10:41:14;3.92;;;1.70;;
71106;SDS011;58763;47.982;11.516;2023-08-20T10:43:48;6.45;;;2.40;;
71106;SDS011;58763;47.982;11.516;2023-08-20T10:46:15;4.95;;;2.00;;
71106;SDS011;58763;47.982;11.516;2023-08-20T10:48:43;4.75;;;2.30;;
71106;SDS011;58763;47.982;11.516;2023-08-20T10:51:16;6.90;;;2.22;;
71106;SDS011;58763;47.982;11.516;2023-08-20T10:53:43;6.82;;;2.45;;
71106;SDS011;58763;47.982;11.516;2023-08-20T10:56:14;5.18;;;2.15;;
71106;SDS011;58763;47.982;11.516;2023-08-20T10:58:41;7.60;;;2.22;;
71106;SDS011;58763;47.982;11.516;2023-08-20T11:01:21;4.88;;;2.05;;
71106;SDS011;58763;47.982;11.516;2023-08-20T11:03:48;5.53;;;2.28;;
71106;SDS011;58763;47.982;11.516;2023-08-20T11:06:15;7.13;;;2.10;;
71106;SDS011;58763;47.982;11.516;2023-08-20T11:08:41;7.28;;;2.30;;
71106;SDS011;58763;47.982;11.516;2023-08-20T11:11:07;8.25;;;2.58;;
71106;SDS011;58763;47.982;11.516;2023-08-20T11:13:33;5.57;;;2.10;;
71106;SDS011;58763;47.982;11.516;2023-08-20T11:16:01;4.63;;;2.03;;
71106;SDS011;58763;47.982;11.516;2023-08-20T11:18:27;4.95;;;2.03;;
71106;SDS011;58763;47.982;11.516;2023-08-20T11:20:53;6.82;;;2.10;;
71106;SDS011;58763;47.982;11.516;2023-08-20T11:23:19;8.32;;;2.80;;
71106;SDS011;58763;47.982;11.516;2023-08-20T11:25:45;5.82;;;2.35;;
71106;SDS011;58763;47.982;11.516;2023-08-20T11:28:10;5.53;;;2.33;;
71106;SDS011;58763;47.982;11.516;2023-08-20T11:30:36;4.13;;;2.00;;
71106;SDS011;58763;47.982;11.516;2023-08-20T11:33:01;4.28;;;2.10;;
71106;SDS011;58763;47.982;11.516;2023-08-20T11:35:27;6.18;;;2.03;;
71106;SDS011;58763;47.982;11.516;2023-08-20T11:37:53;7.82;;;2.20;;
71106;SDS011;58763;47.982;11.516;2023-08-20T11:40:22;6.63;;;2.33;;
71106;SDS011;58763;47.982;11.516;2023-08-20T11:42:48;7.53;;;2.40;;
71106;SDS011;58763;47.982;11.516;2023-08-20T11:45:13;7.93;;;2.17;;
71106;SDS011;58763;47.982;11.516;2023-08-20T11:47:40;4.82;;;2.22;;
71106;SDS011;58763;47.982;11.516;2023-08-20T11:50:06;5.60;;;2.28;;
71106;SDS011;58763;47.982;11.516;2023-08-20T11:52:33;6.18;;;2.10;;
71106;SDS011;58763;47.982;11.516;2023-08-20T11:54:59;5.03;;;2.25;;
71106;SDS011;58763;47.982;11.516;2023-08-20T11:57:25;6.65;;;2.10;;
71106;SDS011;58763;47.982;11.516;2023-08-20T11:59:51;4.47;;;1.98;;
71106;SDS011;58763;47.982;11.516;2023-08-20T12:02:24;6.05;;;2.00;;
71106;SDS011;58763;47.982;11.516;2023-08-20T12:04:50;5.75;;;2.08;;
71106;SDS011;58763;47.982;11.516;2023-08-20T12:07:16;3.60;;;1.90;;
71106;SDS011;58763;47.982;11.516;2023-08-20T12:09:41;4.78;;;1.90;;
71106;SDS011;58763;47.982;11.516;2023-08-20T12:12:07;5.97;;;2.28;;
71106;SDS011;58763;47.982;11.516;2023-08-20T12:14:33;3.05;;;1.65;;
71106;SDS011;58763;47.982;11.516;2023-08-20T12:16:59;4.47;;;1.90;;
71106;SDS011;58763;47.982;11.516;2023-08-20T12:19:25;4.65;;;2.10;;
71106;SDS011;58763;47.982;11.516;2023-08-20T12:21:51;4.43;;;2.17;;
71106;SDS011;58763;47.982;11.516;2023-08-20T12:24:17;4.32;;;1.90;;
71106;SDS011;58763;47.982;11.516;2023-08-20T12:26:44;5.68;;;2.00;;
71106;SDS011;58763;47.982;11.516;2023-08-20T12:29:10;5.20;;;2.10;;
71106;SDS011;58763;47.982;11.516;2023-08-20T12:31:36;5.10;;;2.08;;
71106;SDS011;58763;47.982;11.516;2023-08-20T12:34:01;5.80;;;2.00;;
71106;SDS011;58763;47.982;11.516;2023-08-20T12:36:27;5.28;;;1.80;;
71106;SDS011;58763;47.982;11.516;2023-08-20T12:38:53;5.50;;;2.08;;
71106;SDS011;58763;47.982;11.516;2023-08-20T12:41:19;7.38;;;2.05;;
71106;SDS011;58763;47.982;11.516;2023-08-20T12:43:45;4.22;;;1.98;;
71106;SDS011;58763;47.982;11.516;2023-08-20T12:46:11;4.20;;;1.65;;
71106;SDS011;58763;47.982;11.516;2023-08-20T12:48:37;5.32;;;1.88;;
71106;SDS011;58763;47.982;11.516;2023-08-20T12:51:02;5.18;;;1.90;;
71106;SDS011;58763;47.982;11.516;2023-08-20T12:53:28;5.75;;;2.05;;
71106;SDS011;58763;47.982;11.516;2023-08-20T12:55:54;4.90;;;2.00;;
71106;SDS011;58763;47.982;11.516;2023-08-20T12:58:19;4.93;;;2.17;;
71106;SDS011;58763;47.982;11.516;2023-08-20T13:00:45;4.82;;;2.08;;
71106;SDS011;58763;47.982;11.516;2023-08-20T13:03:11;6.28;;;1.90;;
71106;SDS011;58763;47.982;11.516;2023-08-20T13:05:37;4.65;;;2.00;;
71106;SDS011;58763;47.982;11.516;2023-08-20T13:08:03;6.53;;;1.90;;
71106;SDS011;58763;47.982;11.516;2023-08-20T13:10:29;4.53;;;1.95;;
71106;SDS011;58763;47.982;11.516;2023-08-20T13:12:54;3.15;;;1.70;;
71106;SDS011;58763;47.982;11.516;2023-08-20T13:15:25;4.35;;;2.10;;
71106;SDS011;58763;47.982;11.516;2023-08-20T13:17:51;5.15;;;1.80;;
71106;SDS011;58763;47.982;11.516;2023-08-20T13:20:17;4.20;;;1.63;;
71106;SDS011;58763;47.982;11.516;2023-08-20T13:22:49;4.72;;;1.98;;
71106;SDS011;58763;47.982;11.516;2023-08-20T13:25:15;7.35;;;2.13;;
71106;SDS011;58763;47.982;11.516;2023-08-20T13:27:41;3.95;;;1.85;;
71106;SDS011;58763;47.982;11.516;2023-08-20T13:30:07;3.78;;;1.88;;
71106;SDS011;58763;47.982;11.516;2023-08-20T13:32:36;5.35;;;2.03;;
71106;SDS011;58763;47.982;11.516;2023-08-20T13:35:03;8.40;;;2.30;;
71106;SDS011;58763;47.982;11.516;2023-08-20T13:37:31;4.75;;;1.85;;
71106;SDS011;58763;47.982;11.516;2023-08-20T13:39:57;5.30;;;2.00;;
71106;SDS011;58763;47.982;11.516;2023-08-20T13:42:23;7.88;;;2.38;;
71106;SDS011;58763;47.982;11.516;2023-08-20T13:44:49;5.28;;;2.20;;
71106;SDS011;58763;47.982;11.516;2023-08-20T13:47:14;5.03;;;2.10;;
71106;SDS011;58763;47.982;11.516;2023-08-20T13:49:39;4.80;;;2.10;;
71106;SDS011;58763;47.982;11.516;2023-08-20T13:52:05;4.70;;;2.00;;
71106;SDS011;58763;47.982;11.516;2023-08-20T13:54:31;7.55;;;2.33;;
71106;SDS011;58763;47.982;11.516;2023-08-20T13:56:57;6.82;;;2.05;;
71106;SDS011;58763;47.982;11.516;2023-08-20T13:59:23;4.70;;;1.88;;
71106;SDS011;58763;47.982;11.516;2023-08-20T14:01:48;5.75;;;2.05;;
71106;SDS011;58763;47.982;11.516;2023-08-20T14:04:14;5.75;;;2.00;;
71106;SDS011;58763;47.982;11.516;2023-08-20T14:06:39;6.22;;;2.10;;
71106;SDS011;58763;47.982;11.516;2023-08-20T14:09:04;6.40;;;2.20;;
71106;SDS011;58763;47.982;11.516;2023-08-20T14:11:30;3.97;;;1.80;;
71106;SDS011;58763;47.982;11.516;2023-08-20T14:13:56;5.72;;;2.05;;
71106;SDS011;58763;47.982;11.516;2023-08-20T14:16:21;7.00;;;1.80;;
71106;SDS011;58763;47.982;11.516;2023-08-20T14:18:46;7.30;;;2.20;;
71106;SDS011;58763;47.982;11.516;2023-08-20T14:21:12;5.38;;;1.60;;
71106;SDS011;58763;47.982;11.516;2023-08-20T14:23:37;5.53;;;1.80;;
71106;SDS011;58763;47.982;11.516;2023-08-20T14:26:05;4.97;;;1.92;;
71106;SDS011;58763;47.982;11.516;2023-08-20T14:28:32;4.70;;;1.77;;
71106;SDS011;58763;47.982;11.516;2023-08-20T14:30:58;4.72;;;2.00;;
71106;SDS011;58763;47.982;11.516;2023-08-20T14:33:28;6.22;;;2.00;;